Time;durP1;ratioP1;P1;durP2;ratioP2;P2;SDS_P1;SDS_P2;PMS_P1;PMS_P2;Temp;Humidity;BMP_temperature;BMP_pressure;BME280_temperature;BME280_humidity;BME280_pressure;Samples;Min_cycle;Max_cycle;Signal;HPM_P1;HPM_P2
2021/12/16 02:10:02;;;;;;;2.60;1.93;;;;;;;;;;5049824;28;20302;-69
2021/12/16 02:12:59;;;;;;;2.17;1.40;;;;;;;;;;5023790;28;20275;-69
2021/12/16 02:31:29;;;;;;;1.40;1.30;;;;;;;;;;5013064;28;20292;-69
2021/12/16 02:37:22;;;;;;;2.83;1.40;;;;;;;;;;5030885;28;20227;-69
2021/12/16 02:40:10;;;;;;;3.37;1.73;;;;;;;;;;5029815;28;20216;-69
2021/12/16 02:43:01;;;;;;;2.00;1.67;;;;;;;;;;5033087;28;20720;-69
2021/12/16 02:49:04;;;;;;;2.00;1.50;;;;;;;;;;4925584;29;20756;-69
2021/12/16 02:51:52;;;;;;;2.83;1.60;;;;;;;;;;5030096;28;20262;-69
2021/12/16 02:54:40;;;;;;;2.07;1.50;;;;;;;;;;5031427;28;20259;-69
2021/12/16 02:57:27;;;;;;;2.90;1.63;;;;;;;;;;5022004;28;20228;-70
2021/12/16 03:00:16;;;;;;;3.10;1.80;;;;;;;;;;5032284;28;20209;-70
2021/12/16 03:03:03;;;;;;;2.43;1.63;;;;;;;;;;5031475;28;20205;-69
2021/12/16 03:05:51;;;;;;;2.70;1.50;;;;;;;;;;5030311;28;20224;-68
2021/12/16 03:08:38;;;;;;;3.60;2.00;;;;;;;;;;5032923;28;20209;-69
2021/12/16 03:11:37;;;;;;;3.00;1.87;;;;;;;;;;5027129;28;20373;-69
2021/12/16 03:14:33;;;;;;;2.00;1.50;;;;;;;;;;5027578;28;20306;-69
2021/12/16 03:17:26;;;;;;;2.17;1.63;;;;;;;;;;5042296;28;20295;-69
2021/12/16 03:20:19;;;;;;;3.23;2.03;;;;;;;;;;5029949;28;20329;-70
2021/12/16 03:23:28;;;;;;;2.23;1.77;;;;;;;;;;5030675;28;20250;-68
2021/12/16 03:30:00;;;;;;;3.20;1.80;;;;;;;;;;5029247;28;20205;-69
2021/12/16 03:33:16;;;;;;;2.70;1.80;;;;;;;;;;5028952;28;20208;-69
2021/12/16 03:36:13;;;;;;;2.77;1.73;;;;;;;;;;5019549;28;20228;-69
2021/12/16 03:39:06;;;;;;;2.97;1.73;;;;;;;;;;5031553;28;20216;-69
2021/12/16 03:41:52;;;;;;;2.77;1.90;;;;;;;;;;5022478;28;20589;-69
2021/12/16 03:44:56;;;;;;;3.27;1.97;;;;;;;;;;5028761;28;20209;-69
2021/12/16 03:47:48;;;;;;;1.93;1.73;;;;;;;;;;5031143;28;20672;-69
2021/12/16 03:50:35;;;;;;;3.10;1.57;;;;;;;;;;5027831;28;20299;-69
2021/12/16 03:53:22;;;;;;;2.90;2.00;;;;;;;;;;5030033;28;20244;-69
2021/12/16 03:56:11;;;;;;;2.37;1.77;;;;;;;;;;5018128;28;20286;-69
2021/12/16 03:58:59;;;;;;;3.60;2.10;;;;;;;;;;5028528;28;20985;-69
2021/12/16 04:01:47;;;;;;;3.87;2.10;;;;;;;;;;5039527;28;20216;-69
2021/12/16 04:04:35;;;;;;;2.23;1.73;;;;;;;;;;5029188;28;20307;-70
2021/12/16 04:07:24;;;;;;;3.10;2.10;;;;;;;;;;5026536;28;20673;-69
2021/12/16 04:10:16;;;;;;;3.80;2.43;;;;;;;;;;5028877;28;20351;-69
2021/12/16 04:13:05;;;;;;;3.30;2.20;;;;;;;;;;5046477;28;20212;-69
2021/12/16 04:15:52;;;;;;;2.43;1.77;;;;;;;;;;5046981;28;20232;-69
2021/12/16 04:18:42;;;;;;;3.20;1.80;;;;;;;;;;5040359;28;20240;-69
2021/12/16 04:21:30;;;;;;;3.53;2.43;;;;;;;;;;5038076;28;20212;-69
2021/12/16 04:24:17;;;;;;;4.50;2.50;;;;;;;;;;5045331;28;20208;-69
2021/12/16 04:27:06;;;;;;;2.07;1.67;;;;;;;;;;5033180;28;20259;-69
2021/12/16 04:29:53;;;;;;;4.30;2.13;;;;;;;;;;5040215;28;20210;-69
2021/12/16 04:32:40;;;;;;;2.83;2.00;;;;;;;;;;5041955;28;20683;-69
2021/12/16 04:35:29;;;;;;;3.83;2.13;;;;;;;;;;5048130;28;20321;-70
2021/12/16 04:38:17;;;;;;;3.03;2.03;;;;;;;;;;5052869;28;20691;-69
2021/12/16 04:41:08;;;;;;;3.00;2.20;;;;;;;;;;5042273;28;20215;-69
2021/12/16 04:43:57;;;;;;;3.60;2.10;;;;;;;;;;5032432;28;20572;-68
2021/12/16 04:46:46;;;;;;;4.73;2.37;;;;;;;;;;5054227;28;20235;-69
2021/12/16 04:49:34;;;;;;;4.70;2.10;;;;;;;;;;5056704;28;20299;-69
2021/12/16 04:52:22;;;;;;;3.87;2.30;;;;;;;;;;5057699;28;20208;-69
2021/12/16 04:55:11;;;;;;;3.17;2.00;;;;;;;;;;5047480;28;20306;-69
2021/12/16 04:57:58;;;;;;;3.63;2.10;;;;;;;;;;5039607;28;20305;-69
2021/12/16 05:00:45;;;;;;;4.43;2.27;;;;;;;;;;5048415;28;20275;-69
2021/12/16 05:03:34;;;;;;;4.50;2.30;;;;;;;;;;5045998;28;20247;-70
2021/12/16 05:06:21;;;;;;;6.37;2.43;;;;;;;;;;5046688;28;20671;-69
2021/12/16 05:09:11;;;;;;;5.07;2.47;;;;;;;;;;5034983;28;20569;-69
2021/12/16 05:11:58;;;;;;;3.07;2.10;;;;;;;;;;5045031;28;20707;-69
2021/12/16 05:14:46;;;;;;;4.13;2.47;;;;;;;;;;5036161;28;20218;-68
2021/12/16 05:17:38;;;;;;;4.00;2.57;;;;;;;;;;5036431;28;20225;-69
2021/12/16 05:20:28;;;;;;;3.60;2.40;;;;;;;;;;5046074;28;20226;-68
2021/12/16 05:26:22;;;;;;;3.23;2.07;;;;;;;;;;5046083;28;20205;-70
2021/12/16 05:29:11;;;;;;;5.20;2.30;;;;;;;;;;5042321;28;20271;-69
2021/12/16 05:31:58;;;;;;;3.20;2.27;;;;;;;;;;5045773;28;20245;-68
2021/12/16 05:34:46;;;;;;;3.83;2.27;;;;;;;;;;5049364;28;20216;-68
2021/12/16 05:37:32;;;;;;;3.83;2.40;;;;;;;;;;5047595;28;20263;-68
2021/12/16 05:40:23;;;;;;;4.93;2.37;;;;;;;;;;5039097;28;20694;-69
2021/12/16 05:43:14;;;;;;;4.90;2.70;;;;;;;;;;5030603;28;20244;-68
2021/12/16 05:46:03;;;;;;;4.00;2.50;;;;;;;;;;5045268;28;20361;-69
2021/12/16 05:48:52;;;;;;;4.47;2.60;;;;;;;;;;5034335;28;20212;-69
2021/12/16 05:51:42;;;;;;;4.33;2.43;;;;;;;;;;5047871;28;20212;-69
2021/12/16 05:54:29;;;;;;;5.53;2.70;;;;;;;;;;5046138;28;20680;-69
2021/12/16 05:57:16;;;;;;;5.33;2.40;;;;;;;;;;5045371;28;20263;-69
2021/12/16 06:00:08;;;;;;;3.73;2.50;;;;;;;;;;5041396;28;20212;-69
2021/12/16 06:02:55;;;;;;;3.23;2.23;;;;;;;;;;5045761;28;20295;-68
2021/12/16 06:05:43;;;;;;;3.73;2.33;;;;;;;;;;5030284;28;20744;-69
2021/12/16 06:08:30;;;;;;;3.77;2.43;;;;;;;;;;5041643;28;20205;-69
2021/12/16 06:11:21;;;;;;;5.07;2.80;;;;;;;;;;5042093;28;20259;-69
2021/12/16 06:14:16;;;;;;;4.37;2.40;;;;;;;;;;5031470;28;20205;-69
2021/12/16 06:26:33;;;;;;;4.10;2.63;;;;;;;;;;5047046;28;20216;-69
2021/12/16 06:29:22;;;;;;;4.33;2.40;;;;;;;;;;5049780;28;20217;-69
2021/12/16 06:32:10;;;;;;;5.20;2.53;;;;;;;;;;5039356;28;20262;-69
2021/12/16 06:34:57;;;;;;;3.97;2.83;;;;;;;;;;5063278;28;20262;-69
2021/12/16 06:37:44;;;;;;;4.70;2.80;;;;;;;;;;5053343;28;20305;-69
2021/12/16 06:40:32;;;;;;;4.17;3.00;;;;;;;;;;5036692;28;20218;-68
2021/12/16 06:43:20;;;;;;;4.20;2.80;;;;;;;;;;5040086;28;20728;-69
2021/12/16 06:46:12;;;;;;;4.33;2.67;;;;;;;;;;5046630;28;20336;-68
2021/12/16 06:49:01;;;;;;;4.67;2.50;;;;;;;;;;5046432;28;20604;-69
2021/12/16 06:51:52;;;;;;;7.07;3.07;;;;;;;;;;5050802;28;20224;-68
2021/12/16 06:54:52;;;;;;;5.23;2.63;;;;;;;;;;5050729;28;20583;-68
2021/12/16 06:57:44;;;;;;;5.23;3.03;;;;;;;;;;5051010;28;20704;-68
2021/12/16 07:00:36;;;;;;;5.00;2.80;;;;;;;;;;5042461;28;20205;-69
2021/12/16 07:03:28;;;;;;;5.27;2.93;;;;;;;;;;5046008;28;20254;-68
2021/12/16 07:06:20;;;;;;;4.73;2.73;;;;;;;;;;5046676;28;20197;-68
2021/12/16 07:09:13;;;;;;;4.87;2.83;;;;;;;;;;5045396;28;20240;-69
2021/12/16 07:12:01;;;;;;;3.83;2.20;;;;;;;;;;5046895;28;20241;-68
2021/12/16 07:14:48;;;;;;;4.93;2.33;;;;;;;;;;5036411;28;20213;-69
2021/12/16 07:17:35;;;;;;;3.47;2.67;;;;;;;;;;5038761;28;20327;-69
2021/12/16 07:20:25;;;;;;;3.93;2.37;;;;;;;;;;5045226;28;20235;-69
2021/12/16 07:23:14;;;;;;;3.80;2.60;;;;;;;;;;5040679;28;20228;-69
2021/12/16 07:26:01;;;;;;;4.30;2.60;;;;;;;;;;5049544;28;20266;-68
2021/12/16 07:28:48;;;;;;;4.93;2.30;;;;;;;;;;5057489;28;20205;-69
2021/12/16 07:31:36;;;;;;;4.23;2.70;;;;;;;;;;5050686;28;20247;-69
2021/12/16 07:34:23;;;;;;;5.47;2.50;;;;;;;;;;5045263;28;20388;-69
2021/12/16 07:37:10;;;;;;;5.23;2.50;;;;;;;;;;5041475;28;20695;-69
2021/12/16 07:40:05;;;;;;;4.47;2.67;;;;;;;;;;5057074;28;20279;-68
2021/12/16 07:43:10;;;;;;;5.83;2.77;;;;;;;;;;5053029;28;20208;-69
2021/12/16 07:45:58;;;;;;;4.33;2.67;;;;;;;;;;5049690;28;20212;-69
2021/12/16 07:48:45;;;;;;;4.73;2.73;;;;;;;;;;5033350;28;20266;-69
2021/12/16 07:51:32;;;;;;;5.47;2.97;;;;;;;;;;5054811;28;20288;-69
2021/12/16 07:54:20;;;;;;;5.47;2.83;;;;;;;;;;5059418;28;20302;-68
2021/12/16 07:57:09;;;;;;;5.03;2.80;;;;;;;;;;5047522;28;20715;-69
2021/12/16 07:59:56;;;;;;;4.00;2.83;;;;;;;;;;5038478;28;20739;-69
2021/12/16 08:02:43;;;;;;;2.57;2.27;;;;;;;;;;5037703;28;20296;-68
2021/12/16 08:05:35;;;;;;;5.10;2.90;;;;;;;;;;5063459;28;20717;-69
2021/12/16 08:08:23;;;;;;;3.80;2.67;;;;;;;;;;5049522;28;20345;-68
2021/12/16 08:11:10;;;;;;;4.17;2.50;;;;;;;;;;5045729;28;20724;-68
2021/12/16 08:13:58;;;;;;;5.53;2.90;;;;;;;;;;5056954;28;20297;-68
2021/12/16 08:16:46;;;;;;;3.40;2.57;;;;;;;;;;5049003;28;20220;-68
2021/12/16 08:19:33;;;;;;;2.97;2.40;;;;;;;;;;5047965;28;20236;-69
2021/12/16 08:22:20;;;;;;;3.97;2.40;;;;;;;;;;5059210;28;20234;-69
2021/12/16 08:25:07;;;;;;;4.00;2.43;;;;;;;;;;5050327;28;20339;-69
2021/12/16 08:27:55;;;;;;;4.57;2.60;;;;;;;;;;5049437;28;20628;-69
2021/12/16 08:30:47;;;;;;;5.20;2.67;;;;;;;;;;5048541;28;20702;-69
2021/12/16 08:33:34;;;;;;;5.43;2.53;;;;;;;;;;5040541;28;20262;-68
2021/12/16 08:36:21;;;;;;;4.40;2.87;;;;;;;;;;5037251;28;20245;-69
2021/12/16 08:39:09;;;;;;;5.23;2.80;;;;;;;;;;5040936;28;20635;-69
2021/12/16 08:41:59;;;;;;;4.97;2.80;;;;;;;;;;5042000;28;20209;-68
2021/12/16 08:44:46;;;;;;;5.77;2.60;;;;;;;;;;5049600;28;20294;-68
2021/12/16 08:47:34;;;;;;;4.50;2.63;;;;;;;;;;5043719;28;20284;-69
2021/12/16 08:50:24;;;;;;;4.90;2.63;;;;;;;;;;5043403;28;20266;-68
2021/12/16 08:53:13;;;;;;;5.10;2.87;;;;;;;;;;5050598;28;20341;-68
2021/12/16 08:56:00;;;;;;;3.87;2.40;;;;;;;;;;5049814;28;20278;-68
2021/12/16 08:58:47;;;;;;;4.77;2.47;;;;;;;;;;5058640;28;20232;-68
2021/12/16 09:01:37;;;;;;;4.20;2.50;;;;;;;;;;5063946;28;20233;-69
2021/12/16 09:04:27;;;;;;;4.37;2.60;;;;;;;;;;5048956;28;20232;-69
2021/12/16 09:07:14;;;;;;;3.33;2.17;;;;;;;;;;5045481;28;20631;-68
2021/12/16 09:10:01;;;;;;;5.00;2.37;;;;;;;;;;5048541;28;20226;-68
2021/12/16 09:13:02;;;;;;;5.03;2.70;;;;;;;;;;5045495;28;20657;-68
2021/12/16 09:15:52;;;;;;;7.07;3.00;;;;;;;;;;5036429;28;20209;-68
2021/12/16 09:18:41;;;;;;;4.93;2.00;;;;;;;;;;5050155;28;20653;-69
2021/12/16 09:21:33;;;;;;;4.60;2.50;;;;;;;;;;5046678;28;20212;-69
2021/12/16 09:24:20;;;;;;;4.50;2.63;;;;;;;;;;5045061;28;20241;-68
2021/12/16 09:27:07;;;;;;;4.87;2.53;;;;;;;;;;5049120;28;20585;-68
2021/12/16 09:29:55;;;;;;;6.20;2.87;;;;;;;;;;5048595;28;20291;-68
2021/12/16 09:32:42;;;;;;;3.47;2.40;;;;;;;;;;5039101;28;20313;-69
2021/12/16 09:35:33;;;;;;;3.57;2.67;;;;;;;;;;5048545;28;20275;-69
2021/12/16 09:38:23;;;;;;;4.87;2.60;;;;;;;;;;5048493;28;20225;-69
2021/12/16 09:41:11;;;;;;;3.60;2.77;;;;;;;;;;5038986;28;20210;-68
2021/12/16 09:44:00;;;;;;;3.93;2.80;;;;;;;;;;5047127;28;20202;-68
2021/12/16 09:46:49;;;;;;;4.97;2.87;;;;;;;;;;5050298;28;20263;-68
2021/12/16 09:49:37;;;;;;;4.27;2.60;;;;;;;;;;5038089;28;20300;-69
2021/12/16 09:52:24;;;;;;;4.73;2.80;;;;;;;;;;5061028;28;20680;-69
2021/12/16 09:55:12;;;;;;;4.17;2.77;;;;;;;;;;5056660;28;20220;-69
2021/12/16 09:57:59;;;;;;;3.43;2.70;;;;;;;;;;5050030;28;20225;-68
2021/12/16 10:00:46;;;;;;;4.80;2.63;;;;;;;;;;5033543;28;20222;-70
2021/12/16 10:03:33;;;;;;;4.37;2.87;;;;;;;;;;5050248;28;20236;-69
2021/12/16 10:06:21;;;;;;;4.63;2.60;;;;;;;;;;5034495;28;20237;-69
2021/12/16 10:09:10;;;;;;;5.67;2.70;;;;;;;;;;5047342;28;20209;-74
2021/12/16 10:12:06;;;;;;;4.10;2.60;;;;;;;;;;5046444;28;20242;-69
2021/12/16 10:15:05;;;;;;;7.00;2.90;;;;;;;;;;5060585;28;20346;-69
2021/12/16 10:17:52;;;;;;;4.83;3.23;;;;;;;;;;5057221;28;20353;-68
2021/12/16 10:20:42;;;;;;;4.17;2.40;;;;;;;;;;5060025;28;20257;-68
2021/12/16 10:23:31;;;;;;;6.33;2.60;;;;;;;;;;5052241;28;20759;-68
2021/12/16 10:26:21;;;;;;;3.97;2.67;;;;;;;;;;5050162;28;20659;-68
2021/12/16 10:29:12;;;;;;;4.13;2.30;;;;;;;;;;5051580;28;20293;-70
2021/12/16 10:31:59;;;;;;;3.43;2.50;;;;;;;;;;5047754;28;20214;-69
2021/12/16 10:34:56;;;;;;;4.80;2.57;;;;;;;;;;5052337;28;20703;-68
2021/12/16 10:37:47;;;;;;;5.93;2.73;;;;;;;;;;5048104;28;20680;-68
2021/12/16 10:40:37;;;;;;;4.80;2.67;;;;;;;;;;5052399;28;20296;-68
2021/12/16 10:43:30;;;;;;;3.17;2.20;;;;;;;;;;5044345;28;20255;-68
2021/12/16 10:46:21;;;;;;;5.63;2.93;;;;;;;;;;5042951;28;20208;-68
2021/12/16 10:49:11;;;;;;;6.53;3.00;;;;;;;;;;5043160;28;20283;-68
2021/12/16 10:52:01;;;;;;;4.57;2.27;;;;;;;;;;5039814;28;20212;-68
2021/12/16 10:54:51;;;;;;;5.80;2.40;;;;;;;;;;5039926;28;20846;-68
2021/12/16 10:57:39;;;;;;;6.00;2.70;;;;;;;;;;5051362;28;20675;-68
2021/12/16 11:00:26;;;;;;;4.27;2.53;;;;;;;;;;5053144;28;20249;-68
2021/12/16 11:03:42;;;;;;;3.47;2.70;;;;;;;;;;5059801;28;20216;-68
2021/12/16 11:06:31;;;;;;;5.90;2.60;;;;;;;;;;5051506;28;20713;-68
2021/12/16 11:09:49;;;;;;;4.90;2.43;;;;;;;;;;5029361;28;20198;-68
2021/12/16 11:12:45;;;;;;;4.47;2.60;;;;;;;;;;5044974;28;20216;-68
2021/12/16 11:15:34;;;;;;;3.23;2.63;;;;;;;;;;5067589;28;20339;-68
2021/12/16 11:18:23;;;;;;;2.67;2.10;;;;;;;;;;5042385;28;20316;-68
2021/12/16 11:21:12;;;;;;;3.67;2.43;;;;;;;;;;5037010;28;20300;-68
2021/12/16 11:23:59;;;;;;;4.80;2.63;;;;;;;;;;5050172;28;20285;-68
2021/12/16 11:26:46;;;;;;;4.33;2.50;;;;;;;;;;5055541;28;20273;-68
2021/12/16 11:29:33;;;;;;;3.57;2.63;;;;;;;;;;5039580;28;20201;-68
2021/12/16 11:32:39;;;;;;;4.10;2.67;;;;;;;;;;5047371;28;20207;-68
2021/12/16 11:35:38;;;;;;;4.93;2.80;;;;;;;;;;5048539;28;20210;-68
2021/12/16 11:38:31;;;;;;;4.27;2.47;;;;;;;;;;5046666;28;20316;-68
2021/12/16 11:41:26;;;;;;;3.33;2.53;;;;;;;;;;5047986;28;20243;-68
2021/12/16 11:44:17;;;;;;;5.30;2.60;;;;;;;;;;5048952;28;20223;-68
2021/12/16 11:47:08;;;;;;;5.20;2.50;;;;;;;;;;5047474;28;20209;-68
2021/12/16 11:49:57;;;;;;;3.80;2.30;;;;;;;;;;5050142;28;20738;-68
2021/12/16 11:52:45;;;;;;;4.67;2.33;;;;;;;;;;5043445;28;20584;-68
2021/12/16 11:55:37;;;;;;;4.90;2.50;;;;;;;;;;5036013;28;20197;-68
2021/12/16 11:58:30;;;;;;;4.83;2.60;;;;;;;;;;5031670;28;20699;-68
2021/12/16 12:01:21;;;;;;;5.27;2.60;;;;;;;;;;5048108;28;20212;-68
2021/12/16 12:04:11;;;;;;;4.37;2.37;;;;;;;;;;5049339;28;20681;-68
2021/12/16 12:06:58;;;;;;;4.00;2.50;;;;;;;;;;5048062;28;20336;-68
2021/12/16 12:09:48;;;;;;;4.50;2.37;;;;;;;;;;5048291;28;20217;-68
2021/12/16 12:12:48;;;;;;;5.50;2.40;;;;;;;;;;5022884;28;20255;-68
2021/12/16 12:15:50;;;;;;;4.47;2.87;;;;;;;;;;5026273;28;20694;-69
2021/12/16 12:18:41;;;;;;;4.97;2.57;;;;;;;;;;5025550;28;20240;-68
2021/12/16 12:21:32;;;;;;;4.43;2.50;;;;;;;;;;5027179;28;20219;-68
2021/12/16 12:24:22;;;;;;;3.77;2.33;;;;;;;;;;5026642;28;20239;-68
2021/12/16 12:27:13;;;;;;;5.20;2.33;;;;;;;;;;5026458;28;20208;-68
2021/12/16 12:30:05;;;;;;;5.30;2.80;;;;;;;;;;5023656;28;20291;-68
2021/12/16 12:32:52;;;;;;;3.53;2.40;;;;;;;;;;5024203;28;20661;-68
2021/12/16 12:35:39;;;;;;;4.53;2.60;;;;;;;;;;5035224;28;20216;-68
2021/12/16 12:38:26;;;;;;;5.60;2.47;;;;;;;;;;5033305;28;20221;-68
2021/12/16 12:41:14;;;;;;;3.23;2.30;;;;;;;;;;5034998;28;20289;-69
2021/12/16 12:44:04;;;;;;;3.20;2.20;;;;;;;;;;5028584;28;20213;-68
2021/12/16 12:46:54;;;;;;;3.03;2.33;;;;;;;;;;5027700;28;20202;-68
2021/12/16 12:49:41;;;;;;;4.47;2.67;;;;;;;;;;5044742;28;20231;-68
2021/12/16 12:52:31;;;;;;;3.97;2.33;;;;;;;;;;5025216;28;20693;-68
2021/12/16 12:55:26;;;;;;;4.17;2.60;;;;;;;;;;5028336;28;20643;-68
2021/12/16 12:58:17;;;;;;;5.27;2.87;;;;;;;;;;5043413;28;20220;-68
2021/12/16 13:01:06;;;;;;;3.93;2.50;;;;;;;;;;5029526;28;20212;-68
2021/12/16 13:04:02;;;;;;;4.70;2.80;;;;;;;;;;5028302;28;20248;-68
2021/12/16 13:06:56;;;;;;;3.37;2.20;;;;;;;;;;5012519;28;20291;-68
2021/12/16 13:09:45;;;;;;;4.60;2.87;;;;;;;;;;5022500;28;20205;-68
2021/12/16 13:12:39;;;;;;;3.67;2.60;;;;;;;;;;5043397;28;20216;-68
2021/12/16 13:15:37;;;;;;;3.83;2.57;;;;;;;;;;5034255;28;20578;-68
2021/12/16 13:25:30;;;;;;;4.27;2.60;;;;;;;;;;5033316;28;20246;-68
2021/12/16 13:28:14;;;;;;;4.07;2.13;;;;;;;;;;5048850;28;20204;-68
2021/12/16 13:31:05;;;;;;;5.50;2.70;;;;;;;;;;5046622;28;20208;-68
2021/12/16 13:33:55;;;;;;;6.53;2.87;;;;;;;;;;5048393;28;20662;-68
2021/12/16 13:36:49;;;;;;;3.57;2.50;;;;;;;;;;5063619;28;20218;-68
2021/12/16 13:39:46;;;;;;;4.80;2.67;;;;;;;;;;5047560;28;20238;-68
2021/12/16 13:42:41;;;;;;;3.70;2.63;;;;;;;;;;5048142;28;20245;-68
2021/12/16 13:45:36;;;;;;;3.10;2.27;;;;;;;;;;5065708;28;20302;-68
2021/12/16 13:48:42;;;;;;;5.90;2.70;;;;;;;;;;5046628;28;20710;-68
2021/12/16 13:58:33;;;;;;;4.57;2.57;;;;;;;;;;5038092;28;20445;-68
2021/12/16 14:01:37;;;;;;;5.10;2.50;;;;;;;;;;5043072;28;20213;-68
2021/12/16 14:04:55;;;;;;;4.00;2.83;;;;;;;;;;5038215;28;20229;-68
2021/12/16 14:07:56;;;;;;;4.20;2.63;;;;;;;;;;5039639;28;20215;-68
2021/12/16 14:10:54;;;;;;;3.63;2.27;;;;;;;;;;5045490;28;20244;-68
2021/12/16 14:17:08;;;;;;;3.70;2.33;;;;;;;;;;5041619;28;20225;-68
2021/12/16 14:23:24;;;;;;;6.17;2.63;;;;;;;;;;5044247;28;20260;-68
2021/12/16 14:26:32;;;;;;;4.77;2.80;;;;;;;;;;5045777;28;20207;-69
2021/12/16 14:33:32;;;;;;;4.67;2.40;;;;;;;;;;5050081;28;20220;-68
2021/12/16 14:42:19;;;;;;;5.23;2.50;;;;;;;;;;5036582;28;20210;-68
2021/12/16 14:48:25;;;;;;;4.67;2.40;;;;;;;;;;5043085;28;20344;-68
2021/12/16 14:51:13;;;;;;;5.10;2.67;;;;;;;;;;5050739;28;20215;-69
2021/12/16 14:54:01;;;;;;;5.53;2.83;;;;;;;;;;5048570;28;20241;-68
2021/12/16 14:56:48;;;;;;;4.87;2.33;;;;;;;;;;5049656;28;20697;-68
2021/12/16 14:59:36;;;;;;;3.53;2.40;;;;;;;;;;5050462;28;20354;-68
2021/12/16 15:02:29;;;;;;;4.67;2.30;;;;;;;;;;5044462;28;20578;-68
2021/12/16 15:05:25;;;;;;;3.90;2.50;;;;;;;;;;5045260;28;20229;-68
2021/12/16 15:08:20;;;;;;;2.63;2.30;;;;;;;;;;5037223;28;20566;-68
2021/12/16 15:11:11;;;;;;;4.00;2.73;;;;;;;;;;5041782;28;20237;-68
2021/12/16 15:14:04;;;;;;;4.03;2.50;;;;;;;;;;5047852;28;20205;-68
2021/12/16 15:17:02;;;;;;;4.67;2.70;;;;;;;;;;5048938;28;20216;-68
2021/12/16 15:36:16;;;;;;;4.20;2.50;;;;;;;;;;5047348;28;20244;-68
2021/12/16 15:39:12;;;;;;;3.70;2.40;;;;;;;;;;5042407;28;20287;-68
2021/12/16 15:45:11;;;;;;;4.50;2.67;;;;;;;;;;5042565;28;20224;-68
2021/12/16 15:48:01;;;;;;;4.83;2.73;;;;;;;;;;5046013;28;20304;-68
2021/12/16 15:50:52;;;;;;;6.43;2.63;;;;;;;;;;5051274;28;20624;-68
2021/12/16 15:53:41;;;;;;;4.07;2.57;;;;;;;;;;5046730;28;20242;-68
2021/12/16 15:56:31;;;;;;;4.67;3.00;;;;;;;;;;5048996;28;20640;-68
2021/12/16 15:59:20;;;;;;;4.10;2.60;;;;;;;;;;5051133;28;20257;-68
2021/12/16 16:02:07;;;;;;;6.10;2.90;;;;;;;;;;5046987;28;20692;-68
2021/12/16 16:04:55;;;;;;;6.00;3.00;;;;;;;;;;5042296;28;20269;-68
2021/12/16 16:07:42;;;;;;;4.90;3.07;;;;;;;;;;5043948;28;20248;-68
2021/12/16 16:10:30;;;;;;;3.73;3.03;;;;;;;;;;5046056;28;20724;-68
2021/12/16 16:13:20;;;;;;;5.27;3.27;;;;;;;;;;5045172;28;20243;-68
2021/12/16 16:16:10;;;;;;;4.73;2.93;;;;;;;;;;5048764;28;20216;-68
2021/12/16 16:19:00;;;;;;;3.57;2.90;;;;;;;;;;5050229;28;20290;-68
2021/12/16 16:21:51;;;;;;;4.67;3.00;;;;;;;;;;5049535;28;20209;-68
2021/12/16 16:24:40;;;;;;;4.00;2.67;;;;;;;;;;5066556;28;20619;-68
2021/12/16 16:27:31;;;;;;;5.07;3.17;;;;;;;;;;5047973;28;20243;-68
2021/12/16 16:30:20;;;;;;;5.40;3.13;;;;;;;;;;5042369;28;20238;-68
2021/12/16 16:33:10;;;;;;;4.60;3.07;;;;;;;;;;5050531;28;20206;-68
2021/12/16 16:36:01;;;;;;;5.93;2.90;;;;;;;;;;5046753;28;20323;-68
2021/12/16 16:38:52;;;;;;;4.03;2.80;;;;;;;;;;5046206;28;20584;-68
2021/12/16 16:41:43;;;;;;;4.67;2.90;;;;;;;;;;5035096;28;20216;-68
2021/12/16 16:44:31;;;;;;;4.87;3.20;;;;;;;;;;5047063;28;20631;-68
2021/12/16 16:47:30;;;;;;;3.97;2.70;;;;;;;;;;5047063;28;20224;-68
2021/12/16 16:50:18;;;;;;;4.03;2.80;;;;;;;;;;5044550;28;20695;-68
2021/12/16 16:53:05;;;;;;;3.83;2.83;;;;;;;;;;5047734;28;20300;-67
2021/12/16 16:55:54;;;;;;;3.30;2.83;;;;;;;;;;5048721;28;20284;-68
2021/12/16 16:58:41;;;;;;;4.27;2.93;;;;;;;;;;5046823;28;20210;-68
2021/12/16 17:01:31;;;;;;;4.00;2.73;;;;;;;;;;5047893;28;20326;-69
2021/12/16 17:04:18;;;;;;;5.50;2.80;;;;;;;;;;5061728;28;20257;-69
2021/12/16 17:07:05;;;;;;;4.47;2.60;;;;;;;;;;5046770;28;20287;-69
2021/12/16 17:09:53;;;;;;;4.50;3.03;;;;;;;;;;5039245;28;20477;-69
2021/12/16 17:12:41;;;;;;;4.47;3.10;;;;;;;;;;5039730;28;20274;-70
2021/12/16 17:15:36;;;;;;;3.63;2.80;;;;;;;;;;5037497;28;20293;-70
2021/12/16 17:18:26;;;;;;;4.63;3.00;;;;;;;;;;5042424;28;20209;-70
2021/12/16 17:21:16;;;;;;;5.87;2.80;;;;;;;;;;5044101;28;20274;-69
2021/12/16 17:24:06;;;;;;;3.50;2.90;;;;;;;;;;5052249;28;20255;-69
2021/12/16 17:26:57;;;;;;;4.07;2.77;;;;;;;;;;5045547;28;20241;-69
2021/12/16 17:29:51;;;;;;;3.90;2.90;;;;;;;;;;5048436;28;20210;-69
2021/12/16 17:32:41;;;;;;;5.27;3.00;;;;;;;;;;5046789;28;20608;-69
2021/12/16 17:35:33;;;;;;;4.30;3.03;;;;;;;;;;5045693;28;20229;-69
2021/12/16 17:38:22;;;;;;;4.87;3.47;;;;;;;;;;5048906;28;20312;-69
2021/12/16 17:41:10;;;;;;;6.50;3.30;;;;;;;;;;5040877;28;20277;-69
2021/12/16 17:43:56;;;;;;;3.50;3.00;;;;;;;;;;5042294;28;20209;-69
2021/12/16 17:46:52;;;;;;;3.57;2.70;;;;;;;;;;5046679;28;20308;-69
2021/12/16 17:49:40;;;;;;;3.97;3.10;;;;;;;;;;5055483;28;20210;-69
2021/12/16 17:52:30;;;;;;;3.93;3.23;;;;;;;;;;5046857;28;20301;-69
2021/12/16 17:55:21;;;;;;;4.53;3.27;;;;;;;;;;5052622;28;20213;-69
2021/12/16 17:58:11;;;;;;;4.23;3.10;;;;;;;;;;5046082;28;20223;-70
2021/12/16 18:01:06;;;;;;;4.83;3.30;;;;;;;;;;5044381;28;20326;-69
2021/12/16 18:03:58;;;;;;;4.73;3.43;;;;;;;;;;5048098;28;20230;-70
2021/12/16 18:06:50;;;;;;;3.47;2.67;;;;;;;;;;5046427;28;20243;-69
2021/12/16 18:09:40;;;;;;;3.13;2.83;;;;;;;;;;5049637;28;20585;-71
2021/12/16 18:12:31;;;;;;;3.97;3.07;;;;;;;;;;5050047;28;20223;-69
2021/12/16 18:15:21;;;;;;;3.53;3.03;;;;;;;;;;5056018;28;20220;-69
2021/12/16 18:18:10;;;;;;;3.57;3.27;;;;;;;;;;5055687;28;20831;-69
2021/12/16 18:21:00;;;;;;;2.83;2.53;;;;;;;;;;5038265;28;20782;-69
2021/12/16 18:23:49;;;;;;;3.77;2.90;;;;;;;;;;5049144;28;20236;-69
2021/12/16 18:26:40;;;;;;;4.23;3.10;;;;;;;;;;5042542;28;20209;-69
2021/12/16 18:29:34;;;;;;;3.20;2.90;;;;;;;;;;5051331;28;20212;-69
2021/12/16 18:32:28;;;;;;;3.50;3.00;;;;;;;;;;5050429;28;20216;-69
2021/12/16 18:35:18;;;;;;;4.03;2.90;;;;;;;;;;5050368;28;20213;-68
2021/12/16 18:38:11;;;;;;;2.97;2.63;;;;;;;;;;5033686;28;20210;-69
2021/12/16 18:41:04;;;;;;;3.70;2.93;;;;;;;;;;5042187;28;20229;-69
2021/12/16 18:43:51;;;;;;;4.07;3.00;;;;;;;;;;5049642;28;20669;-69
2021/12/16 18:46:40;;;;;;;3.40;2.80;;;;;;;;;;5067849;28;20706;-69
2021/12/16 18:49:33;;;;;;;4.73;3.10;;;;;;;;;;5050373;28;20213;-68
2021/12/16 18:52:31;;;;;;;3.97;2.70;;;;;;;;;;5049571;28;20205;-68
2021/12/16 18:55:20;;;;;;;4.53;2.97;;;;;;;;;;5051494;28;20292;-69
2021/12/16 18:58:07;;;;;;;2.93;2.60;;;;;;;;;;5050010;28;20322;-69
2021/12/16 19:01:00;;;;;;;2.83;2.53;;;;;;;;;;5050455;28;20233;-69
2021/12/16 19:03:48;;;;;;;3.43;2.37;;;;;;;;;;5034787;28;20605;-69
2021/12/16 19:06:37;;;;;;;3.53;2.87;;;;;;;;;;5047514;28;20217;-69
2021/12/16 19:09:25;;;;;;;3.13;2.73;;;;;;;;;;5046708;28;20344;-69
2021/12/16 19:12:17;;;;;;;3.80;2.93;;;;;;;;;;5024129;28;20234;-69
2021/12/16 19:15:09;;;;;;;4.40;2.80;;;;;;;;;;5029957;28;20297;-69
2021/12/16 19:17:58;;;;;;;3.77;2.70;;;;;;;;;;5025504;28;20563;-69
2021/12/16 19:20:46;;;;;;;3.73;2.80;;;;;;;;;;5036666;28;20320;-69
2021/12/16 19:23:33;;;;;;;3.77;2.57;;;;;;;;;;5030177;28;20205;-69
2021/12/16 19:26:21;;;;;;;7.30;3.30;;;;;;;;;;5021742;28;20211;-69
2021/12/16 19:29:09;;;;;;;5.53;2.83;;;;;;;;;;5031152;28;20288;-69
2021/12/16 19:31:57;;;;;;;3.87;2.77;;;;;;;;;;5027296;28;20531;-69
2021/12/16 19:34:45;;;;;;;3.47;3.07;;;;;;;;;;5027943;28;20230;-69
2021/12/16 19:37:34;;;;;;;4.17;3.00;;;;;;;;;;5029075;28;20239;-69
2021/12/16 19:40:25;;;;;;;4.33;3.20;;;;;;;;;;5025670;28;20247;-68
2021/12/16 19:43:14;;;;;;;4.60;3.03;;;;;;;;;;5022200;28;20218;-69
2021/12/16 19:46:05;;;;;;;3.60;2.90;;;;;;;;;;5022811;28;20334;-69
2021/12/16 19:48:53;;;;;;;3.87;3.00;;;;;;;;;;5024691;28;20263;-69
2021/12/16 19:51:41;;;;;;;3.77;3.00;;;;;;;;;;5016862;28;20203;-69
2021/12/16 19:54:29;;;;;;;5.33;3.03;;;;;;;;;;5028764;28;20754;-69
2021/12/16 19:57:16;;;;;;;3.00;2.70;;;;;;;;;;5024822;28;20309;-69
2021/12/16 20:00:06;;;;;;;3.30;2.80;;;;;;;;;;5028963;28;20211;-69
2021/12/16 20:02:55;;;;;;;5.47;3.10;;;;;;;;;;5022545;28;20218;-69
2021/12/16 20:05:42;;;;;;;3.23;2.80;;;;;;;;;;5024253;28;20337;-70
2021/12/16 20:08:29;;;;;;;3.63;2.90;;;;;;;;;;5014277;28;20495;-69
2021/12/16 20:11:19;;;;;;;3.00;2.63;;;;;;;;;;5024380;28;20714;-69
2021/12/16 20:14:06;;;;;;;4.63;3.40;;;;;;;;;;5028016;28;20678;-69
2021/12/16 20:16:58;;;;;;;4.90;3.43;;;;;;;;;;5031297;28;20724;-69
2021/12/16 20:19:51;;;;;;;3.07;2.77;;;;;;;;;;5022216;28;20227;-69
2021/12/16 20:22:38;;;;;;;4.53;3.00;;;;;;;;;;5021721;28;20285;-69
2021/12/16 20:25:31;;;;;;;3.50;3.00;;;;;;;;;;5032448;28;20289;-69
2021/12/16 20:28:21;;;;;;;4.53;3.10;;;;;;;;;;5027316;28;20279;-68
2021/12/16 20:31:14;;;;;;;4.70;3.60;;;;;;;;;;5027385;28;20295;-69
2021/12/16 20:34:07;;;;;;;6.00;3.23;;;;;;;;;;5029209;28;20291;-69
2021/12/16 20:36:58;;;;;;;3.13;2.83;;;;;;;;;;5026220;28;20721;-69
2021/12/16 20:39:48;;;;;;;3.97;3.30;;;;;;;;;;5037837;28;20309;-69
2021/12/16 20:42:38;;;;;;;3.83;3.43;;;;;;;;;;5035323;28;20237;-69